sensor_id;sensor_type;location;lat;lon;timestamp;P1;durP1;ratioP1;P2;durP2;ratioP2
5460;SDS011;2753;49.196;8.286;2022-07-29T00:02:12;5.73;;;2.63;;
5460;SDS011;2753;49.196;8.286;2022-07-29T00:04:38;16.37;;;2.93;;
5460;SDS011;2753;49.196;8.286;2022-07-29T00:07:03;4.80;;;2.60;;
5460;SDS011;2753;49.196;8.286;2022-07-29T00:09:30;2.83;;;2.63;;
5460;SDS011;2753;49.196;8.286;2022-07-29T00:11:57;4.97;;;2.73;;
5460;SDS011;2753;49.196;8.286;2022-07-29T00:14:25;6.20;;;2.70;;
5460;SDS011;2753;49.196;8.286;2022-07-29T00:16:51;10.00;;;3.23;;
5460;SDS011;2753;49.196;8.286;2022-07-29T00:19:17;2.50;;;2.30;;
5460;SDS011;2753;49.196;8.286;2022-07-29T00:21:43;4.90;;;3.33;;
5460;SDS011;2753;49.196;8.286;2022-07-29T00:24:09;17.30;;;2.87;;
5460;SDS011;2753;49.196;8.286;2022-07-29T00:26:34;3.73;;;2.37;;
5460;SDS011;2753;49.196;8.286;2022-07-29T00:29:01;5.77;;;2.77;;
5460;SDS011;2753;49.196;8.286;2022-07-29T00:31:28;3.17;;;2.93;;
5460;SDS011;2753;49.196;8.286;2022-07-29T00:33:54;6.07;;;3.43;;
5460;SDS011;2753;49.196;8.286;2022-07-29T00:36:20;4.53;;;3.10;;
5460;SDS011;2753;49.196;8.286;2022-07-29T00:38:49;9.93;;;2.63;;
5460;SDS011;2753;49.196;8.286;2022-07-29T00:41:16;10.90;;;3.47;;
5460;SDS011;2753;49.196;8.286;2022-07-29T00:43:43;3.10;;;2.80;;
5460;SDS011;2753;49.196;8.286;2022-07-29T00:46:09;4.73;;;2.70;;
5460;SDS011;2753;49.196;8.286;2022-07-29T00:48:36;5.60;;;2.90;;
5460;SDS011;2753;49.196;8.286;2022-07-29T00:51:03;3.07;;;2.80;;
5460;SDS011;2753;49.196;8.286;2022-07-29T00:53:30;10.13;;;2.90;;
5460;SDS011;2753;49.196;8.286;2022-07-29T00:55:56;5.40;;;2.43;;
5460;SDS011;2753;49.196;8.286;2022-07-29T00:58:23;9.43;;;2.47;;
5460;SDS011;2753;49.196;8.286;2022-07-29T01:00:51;3.30;;;2.90;;
5460;SDS011;2753;49.196;8.286;2022-07-29T01:03:17;8.90;;;2.47;;
5460;SDS011;2753;49.196;8.286;2022-07-29T01:05:44;5.13;;;2.30;;
5460;SDS011;2753;49.196;8.286;2022-07-29T01:08:12;5.03;;;2.33;;
5460;SDS011;2753;49.196;8.286;2022-07-29T01:10:39;3.93;;;2.67;;
5460;SDS011;2753;49.196;8.286;2022-07-29T01:13:06;6.10;;;2.83;;
5460;SDS011;2753;49.196;8.286;2022-07-29T01:15:33;6.87;;;2.87;;
5460;SDS011;2753;49.196;8.286;2022-07-29T01:21:13;4.33;;;2.47;;
5460;SDS011;2753;49.196;8.286;2022-07-29T01:29:44;6.50;;;2.80;;
5460;SDS011;2753;49.196;8.286;2022-07-29T01:32:15;5.60;;;2.30;;
5460;SDS011;2753;49.196;8.286;2022-07-29T01:37:45;5.97;;;2.10;;
5460;SDS011;2753;49.196;8.286;2022-07-29T01:43:20;8.00;;;2.80;;
5460;SDS011;2753;49.196;8.286;2022-07-29T01:46:01;5.03;;;2.17;;
5460;SDS011;2753;49.196;8.286;2022-07-29T01:48:38;9.30;;;2.40;;
5460;SDS011;2753;49.196;8.286;2022-07-29T01:51:13;7.13;;;2.50;;
5460;SDS011;2753;49.196;8.286;2022-07-29T01:56:31;12.50;;;3.23;;
5460;SDS011;2753;49.196;8.286;2022-07-29T01:58:58;14.03;;;2.27;;
5460;SDS011;2753;49.196;8.286;2022-07-29T02:01:26;12.40;;;2.37;;
5460;SDS011;2753;49.196;8.286;2022-07-29T02:03:54;7.57;;;2.23;;
5460;SDS011;2753;49.196;8.286;2022-07-29T02:06:21;13.13;;;2.33;;
5460;SDS011;2753;49.196;8.286;2022-07-29T02:08:48;2.20;;;2.00;;
5460;SDS011;2753;49.196;8.286;2022-07-29T02:11:16;9.47;;;2.53;;
5460;SDS011;2753;49.196;8.286;2022-07-29T02:13:42;4.87;;;2.17;;
5460;SDS011;2753;49.196;8.286;2022-07-29T02:16:10;7.80;;;2.60;;
5460;SDS011;2753;49.196;8.286;2022-07-29T02:18:37;4.17;;;2.33;;
5460;SDS011;2753;49.196;8.286;2022-07-29T02:21:05;9.00;;;2.80;;
5460;SDS011;2753;49.196;8.286;2022-07-29T02:23:33;4.60;;;2.20;;
5460;SDS011;2753;49.196;8.286;2022-07-29T02:26:02;5.90;;;2.23;;
5460;SDS011;2753;49.196;8.286;2022-07-29T02:28:29;4.73;;;2.43;;
5460;SDS011;2753;49.196;8.286;2022-07-29T02:30:56;4.00;;;2.03;;
5460;SDS011;2753;49.196;8.286;2022-07-29T02:33:24;15.63;;;2.50;;
5460;SDS011;2753;49.196;8.286;2022-07-29T02:35:51;2.80;;;2.20;;
5460;SDS011;2753;49.196;8.286;2022-07-29T02:38:18;3.70;;;1.87;;
5460;SDS011;2753;49.196;8.286;2022-07-29T02:41:05;18.23;;;2.30;;
5460;SDS011;2753;49.196;8.286;2022-07-29T02:43:36;10.10;;;2.60;;
5460;SDS011;2753;49.196;8.286;2022-07-29T02:46:04;3.67;;;1.80;;
5460;SDS011;2753;49.196;8.286;2022-07-29T02:48:37;3.60;;;2.20;;
5460;SDS011;2753;49.196;8.286;2022-07-29T02:51:12;9.20;;;2.10;;
5460;SDS011;2753;49.196;8.286;2022-07-29T02:53:45;3.80;;;2.07;;
5460;SDS011;2753;49.196;8.286;2022-07-29T02:56:14;9.03;;;2.43;;
5460;SDS011;2753;49.196;8.286;2022-07-29T02:58:48;7.53;;;2.27;;
5460;SDS011;2753;49.196;8.286;2022-07-29T03:01:25;14.23;;;2.70;;
5460;SDS011;2753;49.196;8.286;2022-07-29T03:03:55;11.10;;;2.90;;
5460;SDS011;2753;49.196;8.286;2022-07-29T03:06:22;5.10;;;2.60;;
5460;SDS011;2753;49.196;8.286;2022-07-29T03:08:50;11.43;;;2.70;;
5460;SDS011;2753;49.196;8.286;2022-07-29T03:11:17;5.10;;;2.70;;
5460;SDS011;2753;49.196;8.286;2022-07-29T03:13:43;4.20;;;2.50;;
5460;SDS011;2753;49.196;8.286;2022-07-29T03:16:09;2.10;;;1.93;;
5460;SDS011;2753;49.196;8.286;2022-07-29T03:18:36;7.20;;;2.70;;
5460;SDS011;2753;49.196;8.286;2022-07-29T03:21:02;4.97;;;2.90;;
5460;SDS011;2753;49.196;8.286;2022-07-29T03:23:28;8.47;;;2.70;;
5460;SDS011;2753;49.196;8.286;2022-07-29T03:25:54;5.83;;;2.33;;
5460;SDS011;2753;49.196;8.286;2022-07-29T03:28:21;5.23;;;2.00;;
5460;SDS011;2753;49.196;8.286;2022-07-29T03:30:47;3.83;;;2.27;;
5460;SDS011;2753;49.196;8.286;2022-07-29T03:33:14;10.87;;;2.97;;
5460;SDS011;2753;49.196;8.286;2022-07-29T03:35:40;2.60;;;2.23;;
5460;SDS011;2753;49.196;8.286;2022-07-29T03:38:05;7.00;;;2.40;;
5460;SDS011;2753;49.196;8.286;2022-07-29T03:40:33;11.50;;;2.20;;
5460;SDS011;2753;49.196;8.286;2022-07-29T03:43:01;4.30;;;2.00;;
5460;SDS011;2753;49.196;8.286;2022-07-29T03:45:28;2.40;;;1.93;;
5460;SDS011;2753;49.196;8.286;2022-07-29T03:47:58;8.30;;;2.10;;
5460;SDS011;2753;49.196;8.286;2022-07-29T03:50:27;5.73;;;2.90;;
5460;SDS011;2753;49.196;8.286;2022-07-29T03:52:55;7.03;;;2.20;;
5460;SDS011;2753;49.196;8.286;2022-07-29T03:55:22;5.03;;;2.00;;
5460;SDS011;2753;49.196;8.286;2022-07-29T03:57:48;4.77;;;2.63;;
5460;SDS011;2753;49.196;8.286;2022-07-29T04:00:15;10.53;;;1.63;;
5460;SDS011;2753;49.196;8.286;2022-07-29T04:02:41;10.57;;;2.60;;
5460;SDS011;2753;49.196;8.286;2022-07-29T04:05:14;4.50;;;2.30;;
5460;SDS011;2753;49.196;8.286;2022-07-29T04:07:40;7.80;;;2.43;;
5460;SDS011;2753;49.196;8.286;2022-07-29T04:10:09;3.40;;;1.97;;
5460;SDS011;2753;49.196;8.286;2022-07-29T04:12:35;15.17;;;2.17;;
5460;SDS011;2753;49.196;8.286;2022-07-29T04:15:02;5.37;;;2.30;;
5460;SDS011;2753;49.196;8.286;2022-07-29T04:17:28;7.57;;;2.40;;
5460;SDS011;2753;49.196;8.286;2022-07-29T04:19:54;3.13;;;1.87;;
5460;SDS011;2753;49.196;8.286;2022-07-29T04:22:20;9.03;;;2.43;;
5460;SDS011;2753;49.196;8.286;2022-07-29T04:24:46;6.13;;;2.23;;
5460;SDS011;2753;49.196;8.286;2022-07-29T04:27:11;3.90;;;2.37;;
5460;SDS011;2753;49.196;8.286;2022-07-29T04:29:37;6.60;;;2.10;;
5460;SDS011;2753;49.196;8.286;2022-07-29T04:32:03;10.27;;;2.90;;
5460;SDS011;2753;49.196;8.286;2022-07-29T04:34:28;4.53;;;2.10;;
5460;SDS011;2753;49.196;8.286;2022-07-29T04:36:55;6.97;;;2.03;;
5460;SDS011;2753;49.196;8.286;2022-07-29T04:39:20;8.73;;;2.63;;
5460;SDS011;2753;49.196;8.286;2022-07-29T04:41:46;8.20;;;2.63;;
5460;SDS011;2753;49.196;8.286;2022-07-29T04:44:12;4.90;;;2.43;;
5460;SDS011;2753;49.196;8.286;2022-07-29T04:46:38;9.63;;;2.10;;
5460;SDS011;2753;49.196;8.286;2022-07-29T04:49:03;10.43;;;2.13;;
5460;SDS011;2753;49.196;8.286;2022-07-29T04:51:29;20.20;;;2.93;;
5460;SDS011;2753;49.196;8.286;2022-07-29T04:53:55;15.83;;;2.57;;
5460;SDS011;2753;49.196;8.286;2022-07-29T04:56:21;13.53;;;3.60;;
5460;SDS011;2753;49.196;8.286;2022-07-29T04:58:46;20.47;;;2.80;;
5460;SDS011;2753;49.196;8.286;2022-07-29T05:01:12;6.20;;;2.27;;
5460;SDS011;2753;49.196;8.286;2022-07-29T05:03:39;8.10;;;2.20;;
5460;SDS011;2753;49.196;8.286;2022-07-29T05:06:05;3.63;;;2.40;;
5460;SDS011;2753;49.196;8.286;2022-07-29T05:08:30;8.03;;;2.90;;
5460;SDS011;2753;49.196;8.286;2022-07-29T05:10:56;6.90;;;2.83;;
5460;SDS011;2753;49.196;8.286;2022-07-29T05:13:22;7.80;;;2.33;;
5460;SDS011;2753;49.196;8.286;2022-07-29T05:15:48;9.30;;;2.40;;
5460;SDS011;2753;49.196;8.286;2022-07-29T05:18:14;4.03;;;2.43;;
5460;SDS011;2753;49.196;8.286;2022-07-29T05:20:39;13.70;;;3.00;;
5460;SDS011;2753;49.196;8.286;2022-07-29T05:23:05;22.13;;;2.60;;
5460;SDS011;2753;49.196;8.286;2022-07-29T05:25:31;4.97;;;2.00;;
5460;SDS011;2753;49.196;8.286;2022-07-29T05:27:57;7.90;;;2.67;;
5460;SDS011;2753;49.196;8.286;2022-07-29T05:30:22;9.97;;;2.73;;
5460;SDS011;2753;49.196;8.286;2022-07-29T05:32:48;9.63;;;2.23;;
5460;SDS011;2753;49.196;8.286;2022-07-29T05:35:14;6.80;;;2.40;;
5460;SDS011;2753;49.196;8.286;2022-07-29T05:37:40;8.83;;;2.53;;
5460;SDS011;2753;49.196;8.286;2022-07-29T05:40:06;13.77;;;2.60;;
5460;SDS011;2753;49.196;8.286;2022-07-29T05:42:33;9.23;;;2.90;;
5460;SDS011;2753;49.196;8.286;2022-07-29T05:44:59;15.67;;;2.10;;
5460;SDS011;2753;49.196;8.286;2022-07-29T05:47:25;7.73;;;2.70;;
5460;SDS011;2753;49.196;8.286;2022-07-29T05:49:51;3.30;;;2.50;;
5460;SDS011;2753;49.196;8.286;2022-07-29T05:52:17;13.37;;;2.77;;
5460;SDS011;2753;49.196;8.286;2022-07-29T05:54:42;3.97;;;2.63;;
5460;SDS011;2753;49.196;8.286;2022-07-29T05:57:09;10.57;;;2.20;;
5460;SDS011;2753;49.196;8.286;2022-07-29T05:59:44;9.97;;;2.80;;
5460;SDS011;2753;49.196;8.286;2022-07-29T06:02:10;9.47;;;3.13;;
5460;SDS011;2753;49.196;8.286;2022-07-29T06:04:36;4.83;;;2.43;;
5460;SDS011;2753;49.196;8.286;2022-07-29T06:07:02;5.50;;;2.90;;
5460;SDS011;2753;49.196;8.286;2022-07-29T06:09:28;5.90;;;3.00;;
5460;SDS011;2753;49.196;8.286;2022-07-29T06:11:54;4.40;;;2.27;;
5460;SDS011;2753;49.196;8.286;2022-07-29T06:14:19;9.87;;;3.50;;
5460;SDS011;2753;49.196;8.286;2022-07-29T06:16:45;7.67;;;3.23;;
5460;SDS011;2753;49.196;8.286;2022-07-29T06:19:11;8.87;;;3.37;;
5460;SDS011;2753;49.196;8.286;2022-07-29T06:21:40;9.43;;;3.20;;
5460;SDS011;2753;49.196;8.286;2022-07-29T06:24:07;6.90;;;3.70;;
5460;SDS011;2753;49.196;8.286;2022-07-29T06:26:33;10.33;;;3.17;;
5460;SDS011;2753;49.196;8.286;2022-07-29T06:28:59;9.30;;;3.17;;
5460;SDS011;2753;49.196;8.286;2022-07-29T06:31:24;6.10;;;3.03;;
5460;SDS011;2753;49.196;8.286;2022-07-29T06:33:50;12.87;;;2.97;;
5460;SDS011;2753;49.196;8.286;2022-07-29T06:36:16;6.50;;;3.10;;
5460;SDS011;2753;49.196;8.286;2022-07-29T06:38:41;9.93;;;5.17;;
5460;SDS011;2753;49.196;8.286;2022-07-29T06:41:07;11.53;;;4.30;;
5460;SDS011;2753;49.196;8.286;2022-07-29T06:43:40;4.17;;;3.10;;
5460;SDS011;2753;49.196;8.286;2022-07-29T06:46:07;4.70;;;4.30;;
5460;SDS011;2753;49.196;8.286;2022-07-29T06:48:37;7.93;;;4.20;;
5460;SDS011;2753;49.196;8.286;2022-07-29T06:51:04;13.23;;;4.27;;
5460;SDS011;2753;49.196;8.286;2022-07-29T06:53:30;14.33;;;4.33;;
5460;SDS011;2753;49.196;8.286;2022-07-29T06:55:57;5.97;;;4.47;;
5460;SDS011;2753;49.196;8.286;2022-07-29T06:58:27;6.60;;;4.60;;
5460;SDS011;2753;49.196;8.286;2022-07-29T07:00:53;4.23;;;3.73;;
5460;SDS011;2753;49.196;8.286;2022-07-29T07:03:20;7.43;;;4.53;;
5460;SDS011;2753;49.196;8.286;2022-07-29T07:05:47;7.63;;;4.47;;
5460;SDS011;2753;49.196;8.286;2022-07-29T07:08:13;6.23;;;3.80;;
5460;SDS011;2753;49.196;8.286;2022-07-29T07:10:41;6.23;;;4.07;;
5460;SDS011;2753;49.196;8.286;2022-07-29T07:13:07;11.30;;;3.70;;
5460;SDS011;2753;49.196;8.286;2022-07-29T07:15:32;9.47;;;4.30;;
5460;SDS011;2753;49.196;8.286;2022-07-29T07:17:58;7.80;;;3.73;;
5460;SDS011;2753;49.196;8.286;2022-07-29T07:20:24;6.03;;;3.53;;
5460;SDS011;2753;49.196;8.286;2022-07-29T07:22:50;9.80;;;4.30;;
5460;SDS011;2753;49.196;8.286;2022-07-29T07:25:16;21.83;;;4.50;;
5460;SDS011;2753;49.196;8.286;2022-07-29T07:27:42;12.60;;;3.90;;
5460;SDS011;2753;49.196;8.286;2022-07-29T07:30:09;8.60;;;4.20;;
5460;SDS011;2753;49.196;8.286;2022-07-29T07:32:35;11.97;;;3.93;;
5460;SDS011;2753;49.196;8.286;2022-07-29T07:35:02;5.03;;;4.17;;
5460;SDS011;2753;49.196;8.286;2022-07-29T07:37:29;10.23;;;3.40;;
5460;SDS011;2753;49.196;8.286;2022-07-29T07:39:55;7.13;;;4.00;;
5460;SDS011;2753;49.196;8.286;2022-07-29T07:42:21;8.67;;;3.70;;
5460;SDS011;2753;49.196;8.286;2022-07-29T07:44:46;4.23;;;3.67;;
5460;SDS011;2753;49.196;8.286;2022-07-29T07:47:13;12.40;;;3.90;;
5460;SDS011;2753;49.196;8.286;2022-07-29T07:49:39;4.73;;;3.60;;
5460;SDS011;2753;49.196;8.286;2022-07-29T07:52:05;16.30;;;4.40;;
5460;SDS011;2753;49.196;8.286;2022-07-29T07:54:31;7.00;;;3.67;;
5460;SDS011;2753;49.196;8.286;2022-07-29T07:56:57;9.20;;;4.07;;
5460;SDS011;2753;49.196;8.286;2022-07-29T07:59:23;11.33;;;3.57;;
5460;SDS011;2753;49.196;8.286;2022-07-29T08:01:49;6.23;;;3.80;;
5460;SDS011;2753;49.196;8.286;2022-07-29T08:04:15;5.80;;;4.30;;
5460;SDS011;2753;49.196;8.286;2022-07-29T08:06:41;6.10;;;3.57;;
5460;SDS011;2753;49.196;8.286;2022-07-29T08:09:06;7.17;;;3.57;;
5460;SDS011;2753;49.196;8.286;2022-07-29T08:11:32;13.80;;;4.07;;
5460;SDS011;2753;49.196;8.286;2022-07-29T08:13:58;14.27;;;3.50;;
5460;SDS011;2753;49.196;8.286;2022-07-29T08:16:26;9.80;;;4.37;;
5460;SDS011;2753;49.196;8.286;2022-07-29T08:18:52;11.30;;;4.17;;
5460;SDS011;2753;49.196;8.286;2022-07-29T08:21:21;9.60;;;3.80;;
5460;SDS011;2753;49.196;8.286;2022-07-29T08:23:48;7.40;;;3.53;;
5460;SDS011;2753;49.196;8.286;2022-07-29T08:26:17;6.93;;;3.37;;
5460;SDS011;2753;49.196;8.286;2022-07-29T08:28:44;13.90;;;4.00;;
5460;SDS011;2753;49.196;8.286;2022-07-29T08:31:11;7.33;;;3.63;;
5460;SDS011;2753;49.196;8.286;2022-07-29T08:33:38;7.93;;;3.70;;
5460;SDS011;2753;49.196;8.286;2022-07-29T08:36:04;4.97;;;3.10;;
5460;SDS011;2753;49.196;8.286;2022-07-29T08:38:31;4.50;;;3.50;;
5460;SDS011;2753;49.196;8.286;2022-07-29T08:40:57;12.20;;;3.97;;
5460;SDS011;2753;49.196;8.286;2022-07-29T08:43:25;8.03;;;3.60;;
5460;SDS011;2753;49.196;8.286;2022-07-29T08:45:52;5.47;;;3.07;;
5460;SDS011;2753;49.196;8.286;2022-07-29T08:48:19;5.93;;;3.77;;
5460;SDS011;2753;49.196;8.286;2022-07-29T08:50:47;9.67;;;3.53;;
5460;SDS011;2753;49.196;8.286;2022-07-29T08:53:17;5.70;;;3.70;;
5460;SDS011;2753;49.196;8.286;2022-07-29T08:55:44;6.07;;;3.60;;
5460;SDS011;2753;49.196;8.286;2022-07-29T08:58:12;6.47;;;3.60;;
5460;SDS011;2753;49.196;8.286;2022-07-29T09:00:46;8.90;;;4.10;;
5460;SDS011;2753;49.196;8.286;2022-07-29T09:03:18;7.33;;;3.90;;
5460;SDS011;2753;49.196;8.286;2022-07-29T09:05:45;11.20;;;3.83;;
5460;SDS011;2753;49.196;8.286;2022-07-29T09:08:15;9.50;;;3.67;;
5460;SDS011;2753;49.196;8.286;2022-07-29T09:10:42;9.13;;;3.97;;
5460;SDS011;2753;49.196;8.286;2022-07-29T09:13:09;9.63;;;3.77;;
5460;SDS011;2753;49.196;8.286;2022-07-29T09:15:35;7.90;;;3.70;;
5460;SDS011;2753;49.196;8.286;2022-07-29T09:18:01;11.70;;;3.37;;
5460;SDS011;2753;49.196;8.286;2022-07-29T09:20:27;8.40;;;3.40;;
5460;SDS011;2753;49.196;8.286;2022-07-29T09:23:13;4.63;;;3.30;;
5460;SDS011;2753;49.196;8.286;2022-07-29T09:25:39;7.37;;;3.50;;
5460;SDS011;2753;49.196;8.286;2022-07-29T09:28:15;7.00;;;3.13;;
5460;SDS011;2753;49.196;8.286;2022-07-29T09:30:56;3.53;;;3.23;;
5460;SDS011;2753;49.196;8.286;2022-07-29T09:33:30;9.87;;;3.27;;
5460;SDS011;2753;49.196;8.286;2022-07-29T09:36:06;5.80;;;3.53;;
5460;SDS011;2753;49.196;8.286;2022-07-29T09:38:33;4.00;;;3.33;;
5460;SDS011;2753;49.196;8.286;2022-07-29T09:41:00;5.43;;;3.47;;
5460;SDS011;2753;49.196;8.286;2022-07-29T09:43:27;14.47;;;3.53;;
5460;SDS011;2753;49.196;8.286;2022-07-29T09:45:53;3.73;;;3.30;;
5460;SDS011;2753;49.196;8.286;2022-07-29T09:48:20;5.13;;;3.07;;
5460;SDS011;2753;49.196;8.286;2022-07-29T09:50:48;6.80;;;3.33;;
5460;SDS011;2753;49.196;8.286;2022-07-29T09:53:48;12.47;;;3.77;;
5460;SDS011;2753;49.196;8.286;2022-07-29T09:56:06;5.13;;;3.43;;
5460;SDS011;2753;49.196;8.286;2022-07-29T09:58:32;5.60;;;3.20;;
5460;SDS011;2753;49.196;8.286;2022-07-29T10:00:59;5.27;;;3.23;;
5460;SDS011;2753;49.196;8.286;2022-07-29T10:03:25;9.03;;;3.90;;
5460;SDS011;2753;49.196;8.286;2022-07-29T10:06:11;13.93;;;3.50;;
5460;SDS011;2753;49.196;8.286;2022-07-29T10:08:38;9.17;;;3.60;;
5460;SDS011;2753;49.196;8.286;2022-07-29T10:11:09;4.20;;;2.93;;
5460;SDS011;2753;49.196;8.286;2022-07-29T10:13:38;3.63;;;2.90;;
5460;SDS011;2753;49.196;8.286;2022-07-29T10:16:04;12.40;;;3.30;;
5460;SDS011;2753;49.196;8.286;2022-07-29T10:18:30;3.00;;;2.80;;
5460;SDS011;2753;49.196;8.286;2022-07-29T10:20:57;11.03;;;2.80;;
5460;SDS011;2753;49.196;8.286;2022-07-29T10:23:23;2.87;;;2.67;;
5460;SDS011;2753;49.196;8.286;2022-07-29T10:25:49;6.13;;;3.33;;
5460;SDS011;2753;49.196;8.286;2022-07-29T10:28:15;11.00;;;3.30;;
5460;SDS011;2753;49.196;8.286;2022-07-29T10:30:41;4.77;;;3.50;;
5460;SDS011;2753;49.196;8.286;2022-07-29T10:33:21;3.60;;;3.30;;
5460;SDS011;2753;49.196;8.286;2022-07-29T10:36:32;3.67;;;3.40;;
5460;SDS011;2753;49.196;8.286;2022-07-29T10:39:45;11.53;;;3.47;;
5460;SDS011;2753;49.196;8.286;2022-07-29T10:44:41;13.43;;;3.37;;
5460;SDS011;2753;49.196;8.286;2022-07-29T10:47:08;3.90;;;2.73;;
5460;SDS011;2753;49.196;8.286;2022-07-29T10:49:55;4.23;;;3.33;;
5460;SDS011;2753;49.196;8.286;2022-07-29T10:58:14;8.27;;;3.20;;
5460;SDS011;2753;49.196;8.286;2022-07-29T11:00:41;4.97;;;3.23;;
5460;SDS011;2753;49.196;8.286;2022-07-29T11:03:07;3.30;;;3.10;;
5460;SDS011;2753;49.196;8.286;2022-07-29T11:08:31;5.97;;;3.33;;
5460;SDS011;2753;49.196;8.286;2022-07-29T11:13:58;3.70;;;3.03;;
5460;SDS011;2753;49.196;8.286;2022-07-29T11:16:24;5.87;;;3.23;;
5460;SDS011;2753;49.196;8.286;2022-07-29T11:21:38;8.00;;;3.03;;
5460;SDS011;2753;49.196;8.286;2022-07-29T11:24:13;8.63;;;3.33;;
5460;SDS011;2753;49.196;8.286;2022-07-29T11:26:39;12.10;;;3.80;;
5460;SDS011;2753;49.196;8.286;2022-07-29T11:29:16;6.40;;;3.00;;
5460;SDS011;2753;49.196;8.286;2022-07-29T11:31:49;4.47;;;3.60;;
5460;SDS011;2753;49.196;8.286;2022-07-29T11:47:26;5.97;;;3.33;;
5460;SDS011;2753;49.196;8.286;2022-07-29T11:49:54;6.07;;;3.10;;
5460;SDS011;2753;49.196;8.286;2022-07-29T11:52:21;2.70;;;2.53;;
5460;SDS011;2753;49.196;8.286;2022-07-29T11:54:48;3.33;;;2.80;;
5460;SDS011;2753;49.196;8.286;2022-07-29T11:57:18;9.23;;;2.73;;
5460;SDS011;2753;49.196;8.286;2022-07-29T11:59:45;3.30;;;2.73;;
5460;SDS011;2753;49.196;8.286;2022-07-29T12:02:12;4.87;;;2.73;;
5460;SDS011;2753;49.196;8.286;2022-07-29T12:04:51;5.73;;;2.80;;
5460;SDS011;2753;49.196;8.286;2022-07-29T12:07:19;6.40;;;2.90;;
5460;SDS011;2753;49.196;8.286;2022-07-29T12:10:00;5.50;;;2.70;;
5460;SDS011;2753;49.196;8.286;2022-07-29T12:12:27;7.83;;;3.60;;
5460;SDS011;2753;49.196;8.286;2022-07-29T12:14:52;6.83;;;3.57;;
5460;SDS011;2753;49.196;8.286;2022-07-29T12:19:53;4.87;;;3.03;;
5460;SDS011;2753;49.196;8.286;2022-07-29T12:24:52;5.03;;;3.00;;
5460;SDS011;2753;49.196;8.286;2022-07-29T12:27:19;4.27;;;3.40;;
5460;SDS011;2753;49.196;8.286;2022-07-29T12:29:45;6.60;;;2.90;;
5460;SDS011;2753;49.196;8.286;2022-07-29T12:32:21;6.67;;;3.13;;
5460;SDS011;2753;49.196;8.286;2022-07-29T12:34:47;5.33;;;3.17;;
5460;SDS011;2753;49.196;8.286;2022-07-29T12:37:13;3.30;;;3.00;;
5460;SDS011;2753;49.196;8.286;2022-07-29T12:39:39;6.10;;;2.67;;
5460;SDS011;2753;49.196;8.286;2022-07-29T12:42:14;6.13;;;3.13;;
5460;SDS011;2753;49.196;8.286;2022-07-29T12:44:45;4.93;;;2.60;;
5460;SDS011;2753;49.196;8.286;2022-07-29T12:47:16;4.13;;;3.07;;
5460;SDS011;2753;49.196;8.286;2022-07-29T12:49:43;3.20;;;2.73;;
5460;SDS011;2753;49.196;8.286;2022-07-29T12:54:58;4.33;;;2.90;;
5460;SDS011;2753;49.196;8.286;2022-07-29T12:57:24;11.20;;;3.70;;
5460;SDS011;2753;49.196;8.286;2022-07-29T13:02:28;3.70;;;2.70;;
5460;SDS011;2753;49.196;8.286;2022-07-29T13:04:55;6.13;;;2.50;;
5460;SDS011;2753;49.196;8.286;2022-07-29T13:07:26;15.83;;;3.40;;
5460;SDS011;2753;49.196;8.286;2022-07-29T13:09:54;12.87;;;2.93;;
5460;SDS011;2753;49.196;8.286;2022-07-29T13:12:35;6.70;;;2.63;;
5460;SDS011;2753;49.196;8.286;2022-07-29T13:15:11;4.40;;;2.50;;
5460;SDS011;2753;49.196;8.286;2022-07-29T13:17:44;6.13;;;2.43;;
5460;SDS011;2753;49.196;8.286;2022-07-29T13:20:10;11.43;;;2.50;;
5460;SDS011;2753;49.196;8.286;2022-07-29T13:22:38;3.03;;;2.20;;
5460;SDS011;2753;49.196;8.286;2022-07-29T13:25:05;4.20;;;2.70;;
5460;SDS011;2753;49.196;8.286;2022-07-29T13:27:34;14.00;;;2.40;;
5460;SDS011;2753;49.196;8.286;2022-07-29T13:30:03;6.20;;;2.40;;
5460;SDS011;2753;49.196;8.286;2022-07-29T13:32:31;5.87;;;1.97;;
5460;SDS011;2753;49.196;8.286;2022-07-29T13:35:00;2.33;;;2.13;;
5460;SDS011;2753;49.196;8.286;2022-07-29T13:37:28;5.50;;;2.23;;
5460;SDS011;2753;49.196;8.286;2022-07-29T13:39:54;2.17;;;1.97;;
5460;SDS011;2753;49.196;8.286;2022-07-29T13:42:21;10.23;;;2.30;;
5460;SDS011;2753;49.196;8.286;2022-07-29T13:44:47;2.30;;;2.10;;
5460;SDS011;2753;49.196;8.286;2022-07-29T13:47:15;2.30;;;2.10;;
5460;SDS011;2753;49.196;8.286;2022-07-29T13:49:41;2.23;;;1.97;;
5460;SDS011;2753;49.196;8.286;2022-07-29T13:52:07;17.07;;;1.90;;
5460;SDS011;2753;49.196;8.286;2022-07-29T13:54:33;5.23;;;1.57;;
5460;SDS011;2753;49.196;8.286;2022-07-29T13:57:02;7.30;;;2.13;;
5460;SDS011;2753;49.196;8.286;2022-07-29T13:59:31;5.43;;;1.70;;
5460;SDS011;2753;49.196;8.286;2022-07-29T14:01:57;1.73;;;1.23;;
5460;SDS011;2753;49.196;8.286;2022-07-29T14:04:23;3.17;;;2.00;;
5460;SDS011;2753;49.196;8.286;2022-07-29T14:06:49;4.00;;;1.80;;
5460;SDS011;2753;49.196;8.286;2022-07-29T14:09:15;2.70;;;2.20;;
5460;SDS011;2753;49.196;8.286;2022-07-29T14:11:41;3.93;;;1.60;;
5460;SDS011;2753;49.196;8.286;2022-07-29T14:14:07;4.10;;;1.63;;
5460;SDS011;2753;49.196;8.286;2022-07-29T14:16:33;10.03;;;2.07;;
5460;SDS011;2753;49.196;8.286;2022-07-29T14:18:59;1.87;;;1.70;;
5460;SDS011;2753;49.196;8.286;2022-07-29T14:21:26;6.00;;;2.10;;
5460;SDS011;2753;49.196;8.286;2022-07-29T14:23:51;4.70;;;2.70;;
5460;SDS011;2753;49.196;8.286;2022-07-29T14:26:19;11.20;;;1.80;;
5460;SDS011;2753;49.196;8.286;2022-07-29T14:28:45;7.53;;;2.27;;
5460;SDS011;2753;49.196;8.286;2022-07-29T14:31:11;2.83;;;2.33;;
5460;SDS011;2753;49.196;8.286;2022-07-29T14:33:37;6.50;;;1.70;;
5460;SDS011;2753;49.196;8.286;2022-07-29T14:36:03;2.23;;;1.37;;
5460;SDS011;2753;49.196;8.286;2022-07-29T14:38:28;3.93;;;2.30;;
5460;SDS011;2753;49.196;8.286;2022-07-29T14:40:54;1.60;;;1.50;;
5460;SDS011;2753;49.196;8.286;2022-07-29T14:43:20;8.00;;;2.07;;
5460;SDS011;2753;49.196;8.286;2022-07-29T14:45:45;2.13;;;1.97;;
5460;SDS011;2753;49.196;8.286;2022-07-29T14:48:11;4.47;;;1.57;;
5460;SDS011;2753;49.196;8.286;2022-07-29T14:50:37;1.83;;;1.73;;
5460;SDS011;2753;49.196;8.286;2022-07-29T14:53:03;2.43;;;1.90;;
5460;SDS011;2753;49.196;8.286;2022-07-29T14:55:29;7.07;;;1.90;;
5460;SDS011;2753;49.196;8.286;2022-07-29T14:57:55;5.20;;;1.67;;
5460;SDS011;2753;49.196;8.286;2022-07-29T15:00:21;3.73;;;1.70;;
5460;SDS011;2753;49.196;8.286;2022-07-29T15:02:47;7.23;;;1.70;;
5460;SDS011;2753;49.196;8.286;2022-07-29T15:05:13;3.30;;;1.50;;
5460;SDS011;2753;49.196;8.286;2022-07-29T15:07:39;2.77;;;1.40;;
5460;SDS011;2753;49.196;8.286;2022-07-29T15:10:05;5.80;;;1.53;;
5460;SDS011;2753;49.196;8.286;2022-07-29T15:12:31;1.57;;;1.47;;
5460;SDS011;2753;49.196;8.286;2022-07-29T15:14:57;3.20;;;1.57;;
5460;SDS011;2753;49.196;8.286;2022-07-29T15:17:23;2.37;;;1.63;;
5460;SDS011;2753;49.196;8.286;2022-07-29T15:19:48;4.60;;;1.57;;
5460;SDS011;2753;49.196;8.286;2022-07-29T15:22:14;7.30;;;1.80;;
5460;SDS011;2753;49.196;8.286;2022-07-29T15:24:40;1.53;;;1.30;;
5460;SDS011;2753;49.196;8.286;2022-07-29T15:27:06;1.80;;;1.37;;
5460;SDS011;2753;49.196;8.286;2022-07-29T15:29:31;3.20;;;1.60;;
5460;SDS011;2753;49.196;8.286;2022-07-29T15:31:57;3.40;;;1.50;;
5460;SDS011;2753;49.196;8.286;2022-07-29T15:34:23;2.40;;;1.60;;
5460;SDS011;2753;49.196;8.286;2022-07-29T15:36:50;3.23;;;1.77;;
5460;SDS011;2753;49.196;8.286;2022-07-29T15:39:16;4.57;;;1.90;;
5460;SDS011;2753;49.196;8.286;2022-07-29T15:41:42;4.27;;;1.97;;
5460;SDS011;2753;49.196;8.286;2022-07-29T15:44:08;2.60;;;1.17;;
5460;SDS011;2753;49.196;8.286;2022-07-29T15:46:34;2.10;;;1.30;;
5460;SDS011;2753;49.196;8.286;2022-07-29T15:49:18;2.03;;;1.50;;
5460;SDS011;2753;49.196;8.286;2022-07-29T15:51:43;10.60;;;1.60;;
5460;SDS011;2753;49.196;8.286;2022-07-29T15:54:09;7.63;;;1.63;;
5460;SDS011;2753;49.196;8.286;2022-07-29T15:56:35;4.00;;;1.80;;
5460;SDS011;2753;49.196;8.286;2022-07-29T15:59:00;8.47;;;2.03;;
5460;SDS011;2753;49.196;8.286;2022-07-29T16:01:26;2.87;;;1.80;;
5460;SDS011;2753;49.196;8.286;2022-07-29T16:03:52;5.73;;;1.73;;
5460;SDS011;2753;49.196;8.286;2022-07-29T16:06:18;3.07;;;1.63;;
5460;SDS011;2753;49.196;8.286;2022-07-29T16:08:44;5.53;;;1.37;;
5460;SDS011;2753;49.196;8.286;2022-07-29T16:11:09;10.70;;;2.00;;
5460;SDS011;2753;49.196;8.286;2022-07-29T16:13:35;10.90;;;1.87;;
5460;SDS011;2753;49.196;8.286;2022-07-29T16:16:01;2.13;;;1.27;;